Time;durP1;ratioP1;P1;durP2;ratioP2;P2;SDS_P1;SDS_P2;PMS_P1;PMS_P2;Temp;Humidity;BMP_temperature;BMP_pressure;BME280_temperature;BME280_humidity;BME280_pressure;Samples;Min_cycle;Max_cycle;Signal;HPM_P1;HPM_P2
2021/12/17 00:05:06;;;;;;;21.40;10.45;;;;;;;1.70;100.00;100913.13;5014929;28;20033;-76
2021/12/17 00:07:35;;;;;;;23.88;11.30;;;;;;;1.77;100.00;100913.63;5038220;28;20360;-76
2021/12/17 00:10:04;;;;;;;23.20;11.10;;;;;;;1.90;100.00;100904.75;5034625;28;20099;-77
2021/12/17 00:12:29;;;;;;;;;;;;;;;1.97;100.00;100919.44;5035329;28;20029;-75
2021/12/17 00:14:56;;;;;;;25.00;12.88;;;;;;;1.91;100.00;100913.59;5034746;28;19913;-76
2021/12/17 00:17:27;;;;;;;30.83;13.23;;;;;;;1.82;100.00;100900.84;5026808;28;20021;-77
2021/12/17 00:49:31;;;;;;;23.30;12.18;;;;;;;1.74;100.00;100874.63;5033595;28;20031;-77
2021/12/17 00:51:59;;;;;;;;;;;;;;;1.84;100.00;100877.59;5035022;28;20036;-76
2021/12/17 00:54:40;;;;;;;26.02;11.70;;;;;;;1.84;100.00;100870.44;5034323;28;19929;-75
2021/12/17 00:57:18;;;;;;;24.85;12.32;;;;;;;1.79;100.00;100877.03;5054151;28;20017;-75
2021/12/17 00:59:49;;;;;;;22.50;11.13;;;;;;;1.72;100.00;100868.53;5031659;28;20025;-75
2021/12/17 01:02:19;;;;;;;32.08;12.52;;;;;;;1.97;100.00;100886.53;5033548;28;20025;-75
2021/12/17 01:04:49;;;;;;;21.67;10.90;;;;;;;1.85;100.00;100864.13;5032821;28;20079;-78
2021/12/17 01:07:17;;;;;;;20.92;10.68;;;;;;;2.01;100.00;100892.53;5032456;28;20025;-76
2021/12/17 01:09:42;;;;;;;24.98;11.45;;;;;;;2.16;100.00;100899.56;5018918;28;20129;-76
2021/12/17 01:12:09;;;;;;;19.42;9.98;;;;;;;2.28;100.00;100904.16;5033129;28;20108;-76
2021/12/17 01:14:35;;;;;;;19.13;10.55;;;;;;;2.26;100.00;100891.84;5023239;28;20030;-76
2021/12/17 01:17:03;;;;;;;20.65;10.45;;;;;;;2.19;100.00;100888.69;5014359;28;20021;-76
2021/12/17 01:24:50;;;;;;;21.65;11.07;;;;;;;2.26;100.00;100895.38;5054081;28;20029;-75
2021/12/17 01:35:29;;;;;;;20.15;10.40;;;;;;;2.60;100.00;100901.19;5026364;28;20720;-75
2021/12/17 01:42:58;;;;;;;22.70;11.40;;;;;;;2.51;100.00;100883.06;5028674;28;20542;-75
2021/12/17 01:45:28;;;;;;;21.60;10.13;;;;;;;2.46;100.00;100871.84;5013530;28;20064;-75
2021/12/17 01:47:54;;;;;;;21.90;10.38;;;;;;;2.54;100.00;100885.53;5013953;28;20053;-76
2021/12/17 02:01:06;;;;;;;19.85;10.93;;;;;;;2.73;100.00;100883.38;5038397;28;20568;-76
2021/12/17 02:03:31;;;;;;;21.25;10.25;;;;;;;2.67;100.00;100877.56;5035420;28;20053;-74
2021/12/17 02:05:59;;;;;;;20.40;9.77;;;;;;;2.66;100.00;100887.41;5016727;28;20151;-73
2021/12/17 02:08:24;;;;;;;20.38;10.65;;;;;;;2.56;100.00;100872.94;5025700;28;20036;-73
2021/12/17 02:30:05;;;;;;;16.30;9.63;;;;;;;2.62;100.00;100845.84;5018373;28;20045;-73
2021/12/17 02:32:34;;;;;;;21.27;10.20;;;;;;;2.76;100.00;100850.25;5012487;28;20030;-73
2021/12/17 02:37:40;;;;;;;19.90;10.30;;;;;;;2.73;100.00;100867.34;5030620;28;20036;-74
2021/12/17 02:42:21;;;;;;;22.42;10.70;;;;;;;2.56;100.00;100843.56;5015503;28;20030;-73
2021/12/17 02:45:33;;;;;;;19.58;9.70;;;;;;;2.89;100.00;100856.47;5012304;28;20041;-74
2021/12/17 02:48:01;;;;;;;20.73;10.10;;;;;;;2.94;100.00;100861.53;5013764;28;20049;-73
2021/12/17 02:50:27;;;;;;;15.77;9.00;;;;;;;2.94;100.00;100853.50;5025464;28;20034;-74
2021/12/17 02:52:54;;;;;;;20.10;9.93;;;;;;;2.97;100.00;100847.94;5020982;28;20497;-74
2021/12/17 02:55:20;;;;;;;16.83;9.38;;;;;;;2.90;100.00;100844.81;5030367;28;20026;-74
2021/12/17 02:57:47;;;;;;;16.65;9.30;;;;;;;2.82;100.00;100826.63;5044732;28;20042;-73
2021/12/17 03:00:13;;;;;;;18.10;9.13;;;;;;;2.75;100.00;100816.44;5038824;28;20470;-74
2021/12/17 03:02:40;;;;;;;20.67;10.15;;;;;;;2.91;100.00;100833.19;5054135;28;20557;-73
2021/12/17 03:05:08;;;;;;;21.40;9.88;;;;;;;2.95;100.00;100839.16;5045376;28;20068;-73
2021/12/17 03:07:36;;;;;;;17.23;9.80;;;;;;;2.81;100.00;100827.59;5034881;28;20075;-74
2021/12/17 03:10:04;;;;;;;21.27;10.43;;;;;;;2.89;100.00;100834.25;5026243;28;20030;-74
2021/12/17 03:12:47;;;;;;;18.52;9.82;;;;;;;2.89;100.00;100827.06;5023735;28;20403;-73
2021/12/17 03:15:39;;;;;;;19.38;9.98;;;;;;;2.90;100.00;100836.78;5027195;28;20025;-76
2021/12/17 03:26:06;;;;;;;15.43;8.88;;;;;;;3.02;100.00;100846.66;5023012;28;20048;-74
2021/12/17 03:28:33;;;;;;;19.05;9.27;;;;;;;3.03;100.00;100836.81;5027898;28;20479;-73
2021/12/17 03:31:00;;;;;;;18.27;9.98;;;;;;;3.11;100.00;100845.16;5032607;28;20084;-74
2021/12/17 03:33:26;;;;;;;15.85;8.45;;;;;;;3.17;100.00;100831.41;5022465;28;20022;-73
2021/12/17 03:35:52;;;;;;;17.63;9.82;;;;;;;3.13;100.00;100840.56;5030462;28;20043;-74
2021/12/17 03:38:17;;;;;;;20.42;10.27;;;;;;;3.29;100.00;100859.09;5033785;28;20025;-73
2021/12/17 03:40:45;;;;;;;18.38;9.57;;;;;;;3.20;100.00;100857.94;5032531;28;20056;-74
2021/12/17 03:43:12;;;;;;;19.92;10.00;;;;;;;3.19;100.00;100858.88;5033628;28;20052;-76
2021/12/17 03:45:39;;;;;;;19.00;10.40;;;;;;;3.06;100.00;100842.81;5034746;28;20031;-74
2021/12/17 03:48:05;;;;;;;19.08;10.25;;;;;;;3.06;100.00;100832.09;5029400;28;20064;-73
2021/12/17 03:50:34;;;;;;;18.60;9.25;;;;;;;3.17;100.00;100850.13;5033173;28;20116;-74
2021/12/17 03:53:00;;;;;;;16.30;9.38;;;;;;;3.16;100.00;100856.41;5033141;28;20045;-74
2021/12/17 03:55:25;;;;;;;19.77;10.05;;;;;;;3.13;100.00;100864.66;5033297;28;20030;-74
2021/12/17 03:57:50;;;;;;;20.98;10.60;;;;;;;3.11;100.00;100861.22;5019507;28;20021;-74
2021/12/17 04:00:16;;;;;;;18.95;10.20;;;;;;;2.98;100.00;100822.91;5031947;28;20057;-74
2021/12/17 04:02:41;;;;;;;18.77;10.65;;;;;;;3.13;100.00;100853.94;5029225;28;20455;-74
2021/12/17 04:05:07;;;;;;;19.17;10.30;;;;;;;3.08;100.00;100845.38;5029920;28;20117;-74
2021/12/17 04:07:32;;;;;;;17.98;10.10;;;;;;;3.11;100.00;100849.66;5032460;28;20055;-74
2021/12/17 04:09:57;;;;;;;20.10;10.23;;;;;;;2.99;100.00;100846.88;5054456;28;20539;-74
2021/12/17 04:12:35;;;;;;;18.88;10.23;;;;;;;2.98;100.00;100839.81;5054132;28;20072;-74
2021/12/17 04:15:03;;;;;;;19.13;9.98;;;;;;;3.12;100.00;100841.56;5052865;28;20032;-74
2021/12/17 04:17:38;;;;;;;20.95;10.77;;;;;;;3.18;100.00;100821.56;5026690;28;20049;-74
2021/12/17 04:20:03;;;;;;;19.75;9.73;;;;;;;3.09;100.00;100825.69;5016319;28;20017;-74
2021/12/17 04:22:28;;;;;;;19.90;10.13;;;;;;;3.10;100.00;100811.38;5032750;28;20028;-74
2021/12/17 04:24:54;;;;;;;17.58;9.65;;;;;;;3.06;100.00;100821.41;5033940;28;20096;-74
2021/12/17 04:27:19;;;;;;;19.35;10.77;;;;;;;3.01;100.00;100802.19;5028765;28;20022;-74
2021/12/17 04:29:45;;;;;;;19.92;9.80;;;;;;;2.89;100.00;100788.78;5015581;28;20033;-75
2021/12/17 04:32:10;;;;;;;19.98;10.20;;;;;;;3.04;100.00;100801.97;5013695;28;20030;-74
2021/12/17 04:34:35;;;;;;;15.18;9.27;;;;;;;3.03;100.00;100812.75;5014330;28;20021;-74
2021/12/17 04:37:01;;;;;;;18.20;10.05;;;;;;;2.95;100.00;100810.59;5037484;28;20021;-74
2021/12/17 04:39:27;;;;;;;19.42;9.38;;;;;;;2.35;100.00;100707.78;5033545;28;20037;-74
2021/12/17 04:42:00;;;;;;;20.10;9.95;;;;;;;2.96;100.00;100808.78;5020238;28;20022;-74
2021/12/17 04:44:29;;;;;;;19.90;9.65;;;;;;;3.07;100.00;100824.97;5014133;28;20487;-76
2021/12/17 04:57:43;;;;;;;19.00;9.73;;;;;;;3.22;100.00;100794.50;5027328;28;20116;-74
2021/12/17 05:00:17;;;;;;;19.52;9.98;;;;;;;3.27;100.00;100813.75;5031873;28;20167;-75
2021/12/17 05:02:46;;;;;;;17.02;9.95;;;;;;;3.29;100.00;100817.16;5017787;28;20453;-74
2021/12/17 05:07:45;;;;;;;19.50;10.10;;;;;;;3.39;100.00;100806.66;5078838;22;20465;-70
2021/12/17 05:18:17;;;;;;;17.25;9.82;;;;;;;3.24;100.00;100773.81;5037528;28;20079;-70
2021/12/17 05:20:49;;;;;;;21.65;11.07;;;;;;;3.10;100.00;100763.25;5049421;28;20508;-70
2021/12/17 05:23:16;;;;;;;20.23;10.02;;;;;;;3.11;100.00;100789.00;5051167;28;20029;-70
2021/12/17 05:25:42;;;;;;;19.33;10.30;;;;;;;3.05;100.00;100805.50;5038399;28;20061;-70
2021/12/17 05:28:07;;;;;;;17.30;9.90;;;;;;;3.04;100.00;100814.50;5032674;28;20061;-70
2021/12/17 05:30:34;;;;;;;17.17;9.68;;;;;;;3.07;100.00;100814.28;5034373;28;20028;-70
2021/12/17 05:33:01;;;;;;;19.38;10.27;;;;;;;3.04;100.00;100806.47;5052141;28;20489;-71
2021/12/17 05:35:27;;;;;;;22.77;10.60;;;;;;;2.98;100.00;100794.34;5042847;28;20036;-70
2021/12/17 05:37:53;;;;;;;18.83;10.55;;;;;;;3.09;100.00;100804.31;5048181;28;20029;-70
2021/12/17 05:40:19;;;;;;;17.58;9.95;;;;;;;3.09;100.00;100793.59;5044060;28;20398;-73
2021/12/17 05:42:47;;;;;;;16.92;9.75;;;;;;;3.19;100.00;100799.19;5050135;28;20100;-74
2021/12/17 05:46:23;;;;;;;19.73;10.80;;;;;;;3.08;100.00;100778.53;5043636;28;20014;-72
2021/12/17 05:48:09;;;;;;;17.25;9.55;;;;;;;3.08;100.00;100765.16;5018755;28;20029;-75
2021/12/17 05:50:38;;;;;;;18.98;10.95;;;;;;;3.14;100.00;100785.25;5041607;28;20399;-73
2021/12/17 05:53:04;;;;;;;20.30;11.45;;;;;;;3.28;100.00;100799.41;5033844;28;20024;-73
2021/12/17 05:55:31;;;;;;;21.75;12.18;;;;;;;3.23;100.00;100788.16;5050263;28;20020;-75
2021/12/17 05:57:57;;;;;;;33.63;15.02;;;;;;;3.14;100.00;100775.41;5045612;28;20021;-73
2021/12/17 06:00:23;;;;;;;23.90;13.68;;;;;;;3.26;100.00;100789.78;5051469;28;20028;-73
2021/12/17 06:02:50;;;;;;;20.77;11.40;;;;;;;3.38;100.00;100809.44;5058042;28;20032;-73
2021/12/17 06:05:15;;;;;;;24.83;12.88;;;;;;;3.29;100.00;100792.22;5072070;28;20024;-74
2021/12/17 06:07:41;;;;;;;24.98;11.98;;;;;;;3.35;100.00;100804.31;5049817;28;20490;-74
2021/12/17 06:10:08;;;;;;;22.95;12.32;;;;;;;3.56;100.00;100813.50;5051898;28;20036;-73
2021/12/17 06:12:34;;;;;;;23.58;11.45;;;;;;;3.53;100.00;100807.50;5050606;28;20028;-73
2021/12/17 06:15:01;;;;;;;18.92;10.73;;;;;;;3.49;100.00;100821.13;5040947;28;20017;-73
2021/12/17 06:17:27;;;;;;;21.13;11.75;;;;;;;3.53;100.00;100826.25;5038114;28;20092;-74
2021/12/17 06:19:52;;;;;;;22.00;10.85;;;;;;;3.27;100.00;100776.31;5044674;28;20063;-74
2021/12/17 06:22:18;;;;;;;19.20;10.95;;;;;;;3.50;100.00;100805.91;5044676;28;20414;-73
2021/12/17 06:24:45;;;;;;;19.40;9.80;;;;;;;3.65;100.00;100823.56;5050070;28;20625;-74
2021/12/17 06:27:15;;;;;;;21.60;10.40;;;;;;;3.55;100.00;100805.59;5051608;28;20024;-73
2021/12/17 06:29:41;;;;;;;17.60;10.20;;;;;;;3.67;100.00;100829.66;5017635;28;20037;-74
2021/12/17 06:32:07;;;;;;;14.75;8.52;;;;;;;3.64;100.00;100837.91;5046035;28;20032;-72
2021/12/17 06:34:33;;;;;;;18.75;9.50;;;;;;;3.27;100.00;100789.69;5051716;28;20060;-74
2021/12/17 06:36:58;;;;;;;20.13;9.98;;;;;;;3.62;100.00;100855.03;5050715;28;20048;-76
2021/12/17 06:39:24;;;;;;;17.95;8.85;;;;;;;3.61;100.00;100850.63;5046060;28;20022;-72
2021/12/17 06:41:50;;;;;;;15.95;8.27;;;;;;;3.37;100.00;100818.44;5041794;28;20029;-74
2021/12/17 06:44:20;;;;;;;13.45;7.63;;;;;;;3.42;100.00;100832.34;5051661;28;20029;-72
2021/12/17 06:46:55;;;;;;;14.55;7.80;;;;;;;3.22;100.00;100825.72;5032419;28;20029;-72
2021/12/17 06:49:31;;;;;;;17.55;8.20;;;;;;;3.29;100.00;100856.44;5052046;28;20033;-72
2021/12/17 06:55:08;;;;;;;16.83;8.60;;;;;;;3.07;100.00;100851.72;5034078;28;20406;-69
2021/12/17 07:10:45;;;;;;;36.07;12.53;;;;;;;2.77;100.00;100826.06;5070541;28;20039;-69
2021/12/17 07:21:21;;;;;;;29.27;10.55;;;;;;;2.97;100.00;100864.84;5047696;28;20482;-70
2021/12/17 07:24:25;;;;;;;;;;;;;;;2.89;100.00;100860.97;5050914;28;20471;-69
2021/12/17 07:39:50;;;;;;;36.78;15.90;;;;;;;2.62;100.00;100856.53;5054031;28;20146;-74
2021/12/17 07:42:15;;;;;;;29.20;13.70;;;;;;;2.62;100.00;100856.53;5034821;28;20483;-73
2021/12/17 07:44:41;;;;;;;34.42;13.82;;;;;;;2.59;100.00;100859.38;5047964;28;20122;-73
2021/12/17 07:47:06;;;;;;;29.63;12.75;;;;;;;2.37;100.00;100828.75;5051201;28;20021;-75
2021/12/17 07:49:31;;;;;;;25.33;12.27;;;;;;;2.32;100.00;100824.66;5045055;28;20025;-74
2021/12/17 07:51:56;;;;;;;31.27;12.60;;;;;;;2.45;100.00;100851.44;5055474;28;20462;-73
2021/12/17 07:54:22;;;;;;;28.30;12.32;;;;;;;2.57;100.00;100866.66;5037917;28;20398;-73
2021/12/17 07:56:47;;;;;;;25.17;13.13;;;;;;;2.57;100.00;100858.66;5051823;28;20039;-75
2021/12/17 07:59:13;;;;;;;27.77;13.18;;;;;;;2.50;100.00;100830.63;5051052;28;20470;-74
2021/12/17 08:01:40;;;;;;;23.15;11.82;;;;;;;2.93;100.00;100857.13;5054477;28;20104;-76
2021/12/17 08:04:08;;;;;;;26.13;11.80;;;;;;;2.90;100.00;100862.69;5046465;28;20379;-74
2021/12/17 08:06:34;;;;;;;23.83;9.70;;;;;;;2.79;100.00;100842.88;5046598;28;20386;-74
2021/12/17 08:09:01;;;;;;;22.75;8.70;;;;;;;2.73;100.00;100848.63;5043603;28;20037;-73
2021/12/17 08:11:27;;;;;;;17.65;7.80;;;;;;;2.91;100.00;100864.38;5050734;28;20025;-71
2021/12/17 08:13:54;;;;;;;18.75;7.95;;;;;;;2.70;100.00;100845.28;5044300;28;20401;-76
2021/12/17 08:32:01;;;;;;;32.20;12.18;;;;;;;3.20;100.00;100865.94;5046351;28;20120;-73
2021/12/17 08:34:27;;;;;;;36.67;13.10;;;;;;;3.55;100.00;100848.41;5053876;28;20082;-74
2021/12/17 08:36:53;;;;;;;28.73;11.82;;;;;;;4.89;100.00;100872.53;5053573;28;20036;-75
2021/12/17 08:39:18;;;;;;;33.40;11.40;;;;;;;6.92;88.93;100838.41;5063331;28;20055;-75
2021/12/17 08:41:44;;;;;;;32.25;12.60;;;;;;;9.39;73.88;100866.72;5050046;28;20065;-72
2021/12/17 08:44:10;;;;;;;28.17;11.00;;;;;;;11.73;66.12;100860.63;5052260;28;20032;-70
2021/12/17 08:46:36;;;;;;;28.17;11.80;;;;;;;12.72;59.73;100860.88;5045812;28;20029;-73
2021/12/17 08:49:03;;;;;;;24.05;10.68;;;;;;;13.53;55.65;100861.13;5044027;28;20048;-71
2021/12/17 08:51:28;;;;;;;23.15;9.77;;;;;;;13.95;53.87;100824.63;5036383;28;20025;-73
2021/12/17 08:53:53;;;;;;;21.17;9.25;;;;;;;14.92;51.99;100840.63;5035205;28;20036;-73
2021/12/17 08:56:22;;;;;;;16.40;7.80;;;;;;;15.72;49.11;100837.38;5052830;28;20521;-72
2021/12/17 08:58:51;;;;;;;20.90;8.85;;;;;;;16.39;48.08;100845.41;5049652;28;20021;-72
2021/12/17 09:01:16;;;;;;;22.20;12.00;;;;;;;17.94;43.81;100833.81;5036585;28;20033;-71
2021/12/17 09:03:41;;;;;;;22.58;11.13;;;;;;;17.81;42.00;100841.13;5048784;28;20398;-73
2021/12/17 09:06:07;;;;;;;21.75;10.95;;;;;;;17.19;43.88;100840.00;5050288;28;20111;-72
2021/12/17 09:08:32;;;;;;;16.38;8.77;;;;;;;17.53;41.65;100837.34;5033027;28;20029;-72
2021/12/17 09:10:59;;;;;;;12.73;7.43;;;;;;;18.68;41.51;100845.09;5039775;28;20521;-72
2021/12/17 09:13:26;;;;;;;16.80;8.50;;;;;;;19.21;38.58;100853.47;5035982;28;20029;-70
2021/12/17 09:15:57;;;;;;;17.70;8.05;;;;;;;19.39;38.81;100861.94;5038036;28;20052;-70
2021/12/17 09:18:22;;;;;;;12.98;6.35;;;;;;;19.64;38.42;100867.59;5042963;28;20018;-70
2021/12/17 09:20:48;;;;;;;10.65;5.85;;;;;;;19.19;38.65;100859.16;5045999;28;20036;-72
2021/12/17 09:23:14;;;;;;;11.82;6.05;;;;;;;19.18;37.86;100838.28;5055401;28;20021;-71
2021/12/17 09:25:39;;;;;;;8.95;6.10;;;;;;;19.52;38.56;100838.25;5035209;28;20017;-72
2021/12/17 09:28:05;;;;;;;6.72;4.88;;;;;;;20.06;38.47;100832.50;5038991;28;20021;-71
2021/12/17 09:30:32;;;;;;;7.72;4.40;;;;;;;20.23;38.31;100854.84;5046259;28;20029;-73
2021/12/17 09:32:57;;;;;;;6.68;4.95;;;;;;;19.85;38.04;100863.81;5036931;28;20030;-72
2021/12/17 09:35:24;;;;;;;6.82;4.72;;;;;;;19.30;38.31;100849.47;5037295;28;20035;-71
2021/12/17 09:37:50;;;;;;;6.85;4.82;;;;;;;20.19;36.71;100847.25;5050409;28;20017;-71
2021/12/17 09:40:15;;;;;;;11.80;5.07;;;;;;;19.75;37.42;100857.06;5035897;28;20036;-70
2021/12/17 09:42:43;;;;;;;9.15;4.85;;;;;;;20.23;37.32;100843.88;5048920;28;20048;-70
2021/12/17 09:45:09;;;;;;;7.03;4.75;;;;;;;19.65;37.82;100808.91;5046367;28;20025;-71
2021/12/17 09:47:34;;;;;;;9.27;4.85;;;;;;;21.06;35.54;100851.28;5038893;28;20044;-72
2021/12/17 09:50:00;;;;;;;5.32;4.35;;;;;;;19.64;38.24;100840.16;5034335;28;20502;-70
2021/12/17 09:52:26;;;;;;;6.47;4.45;;;;;;;19.79;36.16;100828.97;5052451;28;20028;-72
2021/12/17 09:54:52;;;;;;;6.88;4.63;;;;;;;20.58;36.48;100841.63;5049645;28;20029;-70
2021/12/17 09:57:20;;;;;;;6.30;4.53;;;;;;;20.39;36.13;100844.44;5046515;28;20025;-69
2021/12/17 09:59:46;;;;;;;5.72;4.68;;;;;;;21.17;34.80;100828.56;5047603;28;20021;-69
2021/12/17 10:02:12;;;;;;;8.27;5.50;;;;;;;21.64;33.38;100850.19;5043748;28;20426;-72
2021/12/17 10:04:42;;;;;;;7.10;4.45;;;;;;;22.15;32.46;100846.28;5038442;28;20029;-72
2021/12/17 10:07:25;;;;;;;6.28;4.93;;;;;;;21.79;34.49;100864.47;5036681;28;20029;-75
2021/12/17 10:09:53;;;;;;;6.30;4.50;;;;;;;21.37;34.16;100853.16;5023139;28;20529;-72
2021/12/17 10:12:24;;;;;;;7.43;4.40;;;;;;;21.19;33.58;100859.44;5048071;28;20037;-68
2021/12/17 10:15:08;;;;;;;4.28;3.80;;;;;;;19.89;36.08;100867.84;5050303;28;20037;-70
2021/12/17 10:17:36;;;;;;;4.55;3.60;;;;;;;19.65;36.93;100854.75;5045302;28;20037;-69
2021/12/17 10:20:07;;;;;;;4.60;3.90;;;;;;;19.37;36.38;100855.81;5043369;28;20029;-71
2021/12/17 10:22:33;;;;;;;6.22;4.18;;;;;;;20.28;35.32;100855.06;5030705;28;20112;-66
2021/12/17 10:25:08;;;;;;;5.43;3.67;;;;;;;20.83;34.72;100856.50;5031774;28;20034;-69
2021/12/17 10:27:36;;;;;;;4.28;3.70;;;;;;;21.47;34.36;100849.94;5044158;28;20106;-69
2021/12/17 10:30:11;;;;;;;4.40;3.53;;;;;;;21.21;33.39;100839.94;5046896;28;20475;-69
2021/12/17 10:32:36;;;;;;;5.35;3.70;;;;;;;19.93;35.41;100838.84;5047362;28;20025;-69
2021/12/17 10:35:13;;;;;;;3.75;3.08;;;;;;;19.98;35.78;100846.47;5051688;28;20366;-69
2021/12/17 10:37:43;;;;;;;4.65;3.90;;;;;;;20.79;35.50;100837.69;5033535;28;20033;-69
2021/12/17 10:40:21;;;;;;;4.78;3.50;;;;;;;21.54;33.59;100844.38;5038862;28;20577;-69
2021/12/17 10:43:00;;;;;;;3.65;3.00;;;;;;;22.21;33.63;100831.59;5040392;28;20017;-69
2021/12/17 10:45:28;;;;;;;4.35;3.40;;;;;;;21.49;33.04;100836.78;5037862;28;20091;-69
2021/12/17 10:51:10;;;;;;;4.03;3.10;;;;;;;21.80;34.03;100829.50;5043146;28;20039;-69
2021/12/17 10:53:36;;;;;;;3.75;3.00;;;;;;;21.56;33.98;100821.06;5034729;28;20029;-70
2021/12/17 10:56:01;;;;;;;4.75;3.30;;;;;;;22.36;33.71;100839.50;5048135;28;20025;-71
2021/12/17 10:58:27;;;;;;;3.80;3.35;;;;;;;21.56;33.16;100829.31;5047835;28;20022;-71
2021/12/17 11:01:05;;;;;;;6.22;3.50;;;;;;;21.70;33.28;100816.25;5051489;28;20025;-68
2021/12/17 11:03:39;;;;;;;3.65;3.13;;;;;;;21.71;33.36;100819.84;5050535;28;20052;-69
2021/12/17 11:06:04;;;;;;;4.05;3.13;;;;;;;21.93;33.28;100814.72;5064985;22;20032;-71
2021/12/17 11:08:33;;;;;;;3.80;2.92;;;;;;;21.45;34.29;100808.00;5028585;28;20022;-73
2021/12/17 11:11:09;;;;;;;5.43;3.15;;;;;;;20.70;35.10;100813.44;5036782;28;20022;-73
2021/12/17 11:13:35;;;;;;;4.45;3.20;;;;;;;20.75;34.63;100816.34;5033954;28;20029;-71
2021/12/17 11:16:02;;;;;;;3.95;3.50;;;;;;;21.19;34.70;100815.38;5033139;28;20087;-71
2021/12/17 11:18:27;;;;;;;4.32;3.22;;;;;;;21.72;33.72;100807.75;5027344;28;20068;-67
2021/12/17 11:20:55;;;;;;;3.88;3.33;;;;;;;21.85;33.26;100813.97;5015457;28;20025;-72
2021/12/17 11:23:22;;;;;;;4.03;3.38;;;;;;;21.59;34.22;100817.00;5034634;28;20117;-70
2021/12/17 11:25:49;;;;;;;5.20;3.53;;;;;;;20.63;34.64;100807.97;5019800;28;20025;-70
2021/12/17 11:28:15;;;;;;;3.97;3.40;;;;;;;21.65;34.09;100819.69;5012737;28;20053;-70
2021/12/17 11:30:44;;;;;;;4.72;3.85;;;;;;;21.53;34.58;100815.97;5013341;28;20105;-70
2021/12/17 11:33:10;;;;;;;3.70;3.20;;;;;;;21.67;34.35;100805.69;5010258;28;20033;-70
2021/12/17 11:35:38;;;;;;;3.97;3.35;;;;;;;21.12;35.26;100797.25;5022192;28;20041;-72
2021/12/17 11:38:12;;;;;;;3.22;2.90;;;;;;;22.31;33.15;100786.94;5020710;28;20034;-72
2021/12/17 11:40:48;;;;;;;4.80;3.47;;;;;;;20.45;35.71;100796.81;5027677;28;20510;-71
2021/12/17 11:43:39;;;;;;;3.90;3.30;;;;;;;20.25;35.89;100800.53;5012994;28;20041;-71
2021/12/17 11:46:10;;;;;;;3.70;3.17;;;;;;;20.42;36.40;100780.75;5029665;28;20035;-71
2021/12/17 11:48:36;;;;;;;3.75;3.03;;;;;;;20.09;36.36;100793.56;5015271;28;20033;-71
2021/12/17 11:51:06;;;;;;;4.10;3.15;;;;;;;21.45;34.64;100797.00;5030731;28;20021;-72
2021/12/17 11:53:39;;;;;;;3.65;3.00;;;;;;;21.73;34.70;100793.75;5007828;28;20059;-71
2021/12/17 11:56:04;;;;;;;3.65;2.92;;;;;;;21.09;35.39;100776.53;5030888;28;20021;-71
2021/12/17 11:58:48;;;;;;;3.28;2.58;;;;;;;19.86;36.82;100793.25;5012947;28;20038;-71
2021/12/17 12:01:50;;;;;;;3.42;2.58;;;;;;;20.31;36.63;100796.03;5009920;28;20021;-71
2021/12/17 12:04:34;;;;;;;3.35;2.60;;;;;;;19.31;37.75;100803.66;5026531;28;20047;-72
2021/12/17 12:07:03;;;;;;;3.95;2.90;;;;;;;18.72;39.17;100803.34;5014517;28;20030;-71
2021/12/17 12:09:47;;;;;;;;;;;;;;;18.97;38.89;100798.16;5017726;28;20104;-71
2021/12/17 12:12:12;;;;;;;3.88;3.00;;;;;;;20.64;36.29;100790.38;5025029;28;20488;-71
2021/12/17 12:14:38;;;;;;;3.92;2.90;;;;;;;20.35;37.06;100775.28;5025001;28;20041;-71
2021/12/17 12:17:03;;;;;;;4.15;3.20;;;;;;;20.85;35.51;100772.69;5023804;28;20065;-69
2021/12/17 12:19:49;;;;;;;4.30;3.42;;;;;;;20.50;36.47;100783.25;5027807;28;20116;-71
2021/12/17 12:22:28;;;;;;;4.35;3.47;;;;;;;18.44;39.25;100781.56;5029672;28;20025;-71
2021/12/17 12:25:31;;;;;;;5.07;4.05;;;;;;;16.86;42.92;100792.16;5026034;28;20029;-71
2021/12/17 12:27:56;;;;;;;4.38;3.22;;;;;;;15.37;46.71;100787.91;5031674;28;20394;-69
2021/12/17 12:30:40;;;;;;;5.90;3.72;;;;;;;16.41;44.99;100783.25;5019139;28;20033;-71
2021/12/17 12:33:08;;;;;;;4.47;3.85;;;;;;;17.18;44.06;100783.59;5012974;28;20048;-70
2021/12/17 12:35:33;;;;;;;5.07;4.03;;;;;;;18.08;41.67;100774.50;5038233;28;20028;-70
2021/12/17 12:38:20;;;;;;;6.47;4.78;;;;;;;18.76;40.77;100777.25;5033464;28;20487;-69
2021/12/17 12:40:55;;;;;;;6.47;4.03;;;;;;;18.13;41.69;100776.59;5032202;28;20029;-69
2021/12/17 12:43:29;;;;;;;5.63;4.13;;;;;;;16.44;43.87;100771.94;5011990;28;20553;-70
2021/12/17 12:45:56;;;;;;;5.13;3.60;;;;;;;15.38;45.79;100794.19;5028509;28;20449;-70
2021/12/17 12:48:33;;;;;;;5.80;3.30;;;;;;;13.92;49.29;100792.31;5032106;28;20033;-70
2021/12/17 12:51:22;;;;;;;5.05;4.10;;;;;;;12.45;53.96;100799.56;5023130;28;20025;-68
2021/12/17 12:54:06;;;;;;;5.60;4.03;;;;;;;12.23;55.20;100794.75;5024895;28;20025;-68
2021/12/17 12:56:32;;;;;;;6.97;4.50;;;;;;;12.39;55.29;100797.53;5029321;28;20033;-67
2021/12/17 12:58:57;;;;;;;6.50;5.32;;;;;;;11.46;58.44;100783.88;5033586;28;20025;-67
2021/12/17 13:01:23;;;;;;;7.72;5.25;;;;;;;10.80;60.61;100801.53;5023773;28;20095;-67
2021/12/17 13:03:48;;;;;;;8.48;5.90;;;;;;;10.39;62.94;100784.88;5024721;28;20049;-68
2021/12/17 13:06:17;;;;;;;9.00;6.35;;;;;;;10.27;64.26;100792.38;5036519;28;20029;-68
2021/12/17 13:08:51;;;;;;;10.60;6.50;;;;;;;9.68;65.21;100782.84;5028310;28;20026;-67
2021/12/17 13:11:18;;;;;;;9.45;6.35;;;;;;;10.76;62.44;100789.28;5032983;28;20037;-67
2021/12/17 13:13:50;;;;;;;10.85;7.03;;;;;;;10.67;62.59;100798.38;5048581;28;20136;-67
2021/12/17 13:24:23;;;;;;;8.95;6.45;;;;;;;12.05;58.22;100771.31;5025947;28;20033;-68
2021/12/17 13:26:53;;;;;;;8.05;5.70;;;;;;;13.05;55.31;100765.81;5037896;28;20021;-69
2021/12/17 13:29:25;;;;;;;8.75;6.30;;;;;;;13.69;54.12;100762.31;5039291;28;20029;-68
2021/12/17 13:32:00;;;;;;;8.20;5.50;;;;;;;14.05;52.24;100750.94;5024328;28;20049;-68
2021/12/17 13:34:32;;;;;;;9.68;5.97;;;;;;;14.16;51.92;100747.81;5046444;28;20077;-68
2021/12/17 13:37:05;;;;;;;7.60;5.32;;;;;;;14.04;51.51;100755.50;5050457;28;20040;-69
2021/12/17 13:39:35;;;;;;;8.32;5.45;;;;;;;14.14;51.66;100774.34;5024143;28;20056;-71
2021/12/17 13:42:02;;;;;;;9.07;5.82;;;;;;;13.72;51.82;100784.56;5038030;28;20021;-72
2021/12/17 13:44:43;;;;;;;8.20;5.70;;;;;;;12.04;56.43;100785.88;5027783;28;20036;-68
2021/12/17 13:47:18;;;;;;;8.45;6.30;;;;;;;10.68;61.04;100778.41;5028546;28;20084;-69
2021/12/17 13:49:53;;;;;;;8.93;6.15;;;;;;;9.95;63.44;100783.84;5032432;28;20037;-69
2021/12/17 13:52:22;;;;;;;8.50;5.95;;;;;;;9.50;65.36;100784.63;5033070;28;20031;-69
2021/12/17 13:54:48;;;;;;;8.90;6.20;;;;;;;8.91;68.50;100770.44;5008524;28;20048;-69
2021/12/17 13:57:17;;;;;;;9.43;6.05;;;;;;;8.55;69.96;100781.78;5015308;28;20071;-68
2021/12/17 13:59:44;;;;;;;11.02;6.45;;;;;;;8.16;71.16;100793.50;5027938;28;20060;-68
2021/12/17 14:02:15;;;;;;;9.02;6.50;;;;;;;7.95;72.93;100805.22;5024657;28;20029;-68
2021/12/17 14:04:42;;;;;;;9.85;6.40;;;;;;;7.94;72.97;100800.84;5032059;28;20029;-68
2021/12/17 14:07:09;;;;;;;10.25;6.47;;;;;;;7.57;74.34;100776.28;5030164;28;20357;-69
2021/12/17 14:09:36;;;;;;;9.27;5.85;;;;;;;7.68;74.98;100824.72;5012501;28;20040;-68
2021/12/17 14:12:27;;;;;;;13.13;6.32;;;;;;;7.41;75.76;100807.28;5010851;28;20102;-68
2021/12/17 14:15:12;;;;;;;9.10;6.10;;;;;;;7.35;77.38;100832.03;5012503;28;20128;-68
2021/12/17 14:17:40;;;;;;;8.00;5.72;;;;;;;7.34;77.08;100837.56;5029338;28;20037;-69
2021/12/17 14:20:26;;;;;;;9.13;6.00;;;;;;;7.23;77.83;100835.78;5032763;28;20025;-69
2021/12/17 14:23:15;;;;;;;8.65;5.88;;;;;;;7.23;77.73;100839.34;5030376;28;20082;-69
2021/12/17 14:25:44;;;;;;;9.65;5.55;;;;;;;6.93;79.35;100826.66;5035141;28;20045;-68
2021/12/17 14:28:15;;;;;;;10.85;6.30;;;;;;;6.67;80.91;100846.81;5026676;28;20026;-69
2021/12/17 14:30:57;;;;;;;9.23;5.55;;;;;;;6.61;81.10;100834.75;5036883;28;20028;-69